createdAt,value
2022-11-07T00:01:20.857Z,9.40
2022-11-07T00:03:47.356Z,9.36
2022-11-07T00:06:13.908Z,9.35
2022-11-07T00:08:40.411Z,9.38
2022-11-07T00:11:07.044Z,9.38
2022-11-07T00:13:33.614Z,9.33
2022-11-07T00:16:05.240Z,9.34
2022-11-07T00:18:31.776Z,9.41
2022-11-07T00:21:07.281Z,9.38
2022-11-07T00:23:34.154Z,9.37
2022-11-07T00:26:08.819Z,9.41
2022-11-07T00:28:37.124Z,9.40
2022-11-07T00:31:05.031Z,9.37
2022-11-07T00:33:31.995Z,9.43
2022-11-07T00:35:58.505Z,9.45
2022-11-07T00:38:25.021Z,9.47
2022-11-07T00:41:03.221Z,9.46
2022-11-07T00:43:30.339Z,9.52
2022-11-07T00:45:57.459Z,9.55
2022-11-07T00:48:23.972Z,9.57
2022-11-07T00:50:53.987Z,9.56
2022-11-07T00:53:20.504Z,9.53
2022-11-07T00:55:47.508Z,9.55
2022-11-07T00:58:14.676Z,9.57
2022-11-07T01:00:42.222Z,9.61
2022-11-07T01:03:27.940Z,9.60
2022-11-07T01:06:02.002Z,9.62
2022-11-07T01:08:29.327Z,9.62
2022-11-07T01:11:02.530Z,9.60
2022-11-07T01:13:29.034Z,9.62
2022-11-07T01:15:59.784Z,9.64
2022-11-07T01:18:27.987Z,9.63
2022-11-07T01:20:54.545Z,9.66
2022-11-07T01:23:25.757Z,9.68
2022-11-07T01:25:52.265Z,9.71
2022-11-07T01:28:18.695Z,9.75
2022-11-07T01:30:48.345Z,9.72
2022-11-07T01:33:15.185Z,9.70
2022-11-07T01:35:43.951Z,9.71
2022-11-07T01:38:10.409Z,9.74
2022-11-07T01:41:04.078Z,9.74
2022-11-07T01:43:50.613Z,9.77
2022-11-07T01:46:18.113Z,9.74
2022-11-07T01:48:49.135Z,9.73
2022-11-07T01:51:17.325Z,9.75
2022-11-07T01:53:44.084Z,9.75
2022-11-07T01:56:16.232Z,9.77
2022-11-07T01:58:44.481Z,9.77
2022-11-07T02:01:11.149Z,9.75
2022-11-07T02:03:37.736Z,9.75
2022-11-07T02:06:09.288Z,9.76
2022-11-07T02:08:39.857Z,9.78
2022-11-07T02:11:07.263Z,9.79
2022-11-07T02:13:33.799Z,9.76
2022-11-07T02:16:03.110Z,9.76
2022-11-07T02:18:30.755Z,9.77
2022-11-07T02:21:04.315Z,9.75
2022-11-07T02:23:39.720Z,9.70
2022-11-07T02:26:06.554Z,9.69
2022-11-07T02:28:36.564Z,9.72
2022-11-07T02:31:03.062Z,9.72
2022-11-07T02:33:29.602Z,9.73
2022-11-07T02:35:57.527Z,9.75
2022-11-07T02:38:31.031Z,9.75
2022-11-07T02:41:02.914Z,9.75
2022-11-07T02:43:31.820Z,9.75
2022-11-07T02:46:01.988Z,9.76
2022-11-07T02:48:33.155Z,9.74
2022-11-07T02:50:59.722Z,9.74
2022-11-07T02:53:26.180Z,9.75
2022-11-07T02:55:52.685Z,9.73
2022-11-07T02:58:19.114Z,9.71
2022-11-07T03:00:45.680Z,9.71
2022-11-07T03:03:13.488Z,9.71
2022-11-07T03:05:40.253Z,9.78
2022-11-07T03:08:06.702Z,9.80
2022-11-07T03:10:33.277Z,9.82
2022-11-07T03:12:59.727Z,9.86
2022-11-07T03:15:26.239Z,9.88
2022-11-07T03:17:52.774Z,9.90
2022-11-07T03:20:22.934Z,9.96
2022-11-07T03:22:49.414Z,9.98
2022-11-07T03:25:15.869Z,10.00
2022-11-07T03:27:49.232Z,10.06
2022-11-07T03:30:16.974Z,10.06
2022-11-07T03:32:46.916Z,10.05
2022-11-07T03:35:13.439Z,10.06
2022-11-07T03:37:39.909Z,10.09
2022-11-07T03:40:07.179Z,10.08
2022-11-07T03:42:39.006Z,10.08
2022-11-07T03:45:06.698Z,10.12
2022-11-07T03:47:37.218Z,10.14
2022-11-07T03:50:04.766Z,10.15
2022-11-07T03:52:31.392Z,10.15
2022-11-07T03:54:57.938Z,10.14
2022-11-07T03:57:24.450Z,10.19
2022-11-07T03:59:50.921Z,10.20
2022-11-07T04:02:17.939Z,10.19
2022-11-07T04:04:44.547Z,10.20
2022-11-07T04:07:11.003Z,10.20
2022-11-07T04:09:37.474Z,10.19
2022-11-07T04:12:22.719Z,10.19
2022-11-07T04:15:07.587Z,10.20
2022-11-07T04:17:34.050Z,10.20
2022-11-07T04:20:07.968Z,10.21
2022-11-07T04:22:35.093Z,10.23
2022-11-07T04:25:01.647Z,10.24
2022-11-07T04:27:43.246Z,10.22
2022-11-07T04:30:21.821Z,10.21
2022-11-07T04:32:59.306Z,10.21
2022-11-07T04:35:31.332Z,10.20
2022-11-07T04:37:58.351Z,10.20
2022-11-07T04:40:25.100Z,10.21
2022-11-07T04:42:51.822Z,10.18
2022-11-07T04:45:18.494Z,10.20
2022-11-07T04:47:45.277Z,10.19
2022-11-07T04:50:15.385Z,10.19
2022-11-07T04:52:42.523Z,10.18
2022-11-07T04:55:16.375Z,10.18
2022-11-07T04:57:42.891Z,10.16
2022-11-07T05:00:09.677Z,10.13
2022-11-07T05:02:36.182Z,10.13
2022-11-07T05:05:02.676Z,10.13
2022-11-07T05:07:30.848Z,10.14
2022-11-07T05:09:57.308Z,10.20
2022-11-07T05:12:23.775Z,10.26
2022-11-07T05:14:50.244Z,10.28
2022-11-07T05:17:17.078Z,10.29
2022-11-07T05:19:43.605Z,10.29
2022-11-07T05:22:29.338Z,10.31
2022-11-07T05:24:56.001Z,10.27
2022-11-07T05:27:23.264Z,10.31
2022-11-07T05:29:49.866Z,10.30
2022-11-07T05:32:16.987Z,10.32
2022-11-07T05:34:43.758Z,10.33
2022-11-07T05:37:11.672Z,10.36
2022-11-07T05:39:38.534Z,10.37
2022-11-07T05:42:05.556Z,10.37
2022-11-07T05:44:32.351Z,10.38
2022-11-07T05:46:59.719Z,10.35
2022-11-07T05:49:26.382Z,10.35
2022-11-07T05:51:53.402Z,10.37
2022-11-07T05:54:19.944Z,10.35
2022-11-07T05:56:46.459Z,10.33
2022-11-07T05:59:15.475Z,10.33
2022-11-07T06:01:42.251Z,10.35
2022-11-07T06:04:08.984Z,10.36
2022-11-07T06:06:35.690Z,10.37
2022-11-07T06:09:02.187Z,10.40
2022-11-07T06:11:28.662Z,10.43
2022-11-07T06:13:55.113Z,10.42
2022-11-07T06:16:21.802Z,10.40
2022-11-07T06:18:48.282Z,10.37
2022-11-07T06:21:15.936Z,10.36
2022-11-07T06:23:42.985Z,10.36
2022-11-07T06:26:09.841Z,10.34
2022-11-07T06:28:36.541Z,10.29
2022-11-07T06:31:04.571Z,10.26
2022-11-07T06:33:31.643Z,10.24
2022-11-07T06:36:09.439Z,10.27
2022-11-07T06:38:36.927Z,10.29
2022-11-07T06:41:08.628Z,10.31
2022-11-07T06:43:35.371Z,10.29
2022-11-07T06:46:07.476Z,10.30
2022-11-07T06:48:34.220Z,10.29
2022-11-07T06:51:02.650Z,10.30
2022-11-07T06:53:30.156Z,10.31
2022-11-07T06:55:59.602Z,10.34
2022-11-07T06:58:26.109Z,10.31
2022-11-07T07:00:52.640Z,10.29
2022-11-07T07:03:19.495Z,10.27
2022-11-07T07:05:46.112Z,10.33
2022-11-07T07:08:14.118Z,10.36
2022-11-07T07:10:45.600Z,10.38
2022-11-07T07:13:15.009Z,10.42
2022-11-07T07:15:51.001Z,10.45
2022-11-07T07:18:19.035Z,10.49
2022-11-07T07:20:46.118Z,10.56
2022-11-07T07:23:12.700Z,10.60
2022-11-07T07:25:39.215Z,10.65
2022-11-07T07:28:05.679Z,10.67
2022-11-07T07:30:32.231Z,10.69
2022-11-07T07:32:58.856Z,10.73
2022-11-07T07:35:25.368Z,10.75
2022-11-07T07:37:52.079Z,10.74
2022-11-07T07:40:19.549Z,10.75
2022-11-07T07:42:46.932Z,10.76
2022-11-07T07:45:15.793Z,10.79
2022-11-07T07:47:42.455Z,10.85
2022-11-07T07:50:11.521Z,10.89
2022-11-07T07:52:38.236Z,10.92
2022-11-07T07:55:07.922Z,10.97
2022-11-07T07:57:39.098Z,11.00
2022-11-07T08:00:06.072Z,11.02
2022-11-07T08:02:32.547Z,11.10
2022-11-07T08:04:59.019Z,11.15
2022-11-07T08:07:25.514Z,11.20
2022-11-07T08:09:51.967Z,11.24
2022-11-07T08:12:18.451Z,11.29
2022-11-07T08:14:44.904Z,11.32
2022-11-07T08:17:11.380Z,11.35
2022-11-07T08:19:37.852Z,11.35
2022-11-07T08:22:04.327Z,11.41
2022-11-07T08:24:31.269Z,11.49
2022-11-07T08:26:58.071Z,11.48
2022-11-07T08:29:24.592Z,11.48
2022-11-07T08:31:51.117Z,11.47
2022-11-07T08:34:18.569Z,11.45
2022-11-07T08:36:45.130Z,11.43
2022-11-07T08:39:11.697Z,11.45
2022-11-07T08:41:38.197Z,11.50
2022-11-07T08:44:04.859Z,11.60
2022-11-07T08:46:31.327Z,11.77
2022-11-07T08:48:57.799Z,11.88
2022-11-07T08:51:24.231Z,11.87
2022-11-07T08:53:50.725Z,12.00
2022-11-07T08:56:17.197Z,12.15
2022-11-07T08:58:44.589Z,12.25
2022-11-07T09:01:11.348Z,12.23
2022-11-07T09:03:52.915Z,12.29
2022-11-07T09:06:23.731Z,12.43
2022-11-07T09:08:50.259Z,12.34
2022-11-07T09:11:18.918Z,12.36
2022-11-07T09:13:47.105Z,12.35
2022-11-07T09:16:17.374Z,12.35
2022-11-07T09:18:44.842Z,12.28
2022-11-07T09:21:11.453Z,12.26
2022-11-07T09:23:37.941Z,12.27
2022-11-07T09:26:04.794Z,12.34
2022-11-07T09:28:31.700Z,12.43
2022-11-07T09:30:59.524Z,12.40
2022-11-07T09:33:27.023Z,12.42
2022-11-07T09:35:53.738Z,12.51
2022-11-07T09:38:20.732Z,12.64
2022-11-07T09:41:07.181Z,12.77
2022-11-07T09:43:51.364Z,12.86
2022-11-07T09:46:38.338Z,12.79
2022-11-07T09:49:15.931Z,12.69
2022-11-07T09:52:05.099Z,12.59
2022-11-07T09:54:37.882Z,12.57
2022-11-07T09:57:04.624Z,12.58
2022-11-07T09:59:42.656Z,12.58
2022-11-07T10:02:15.762Z,12.60
2022-11-07T10:04:43.606Z,12.67
2022-11-07T10:07:35.907Z,12.71
2022-11-07T10:10:02.219Z,12.78
2022-11-07T10:12:45.122Z,12.80
2022-11-07T10:15:23.998Z,12.80
2022-11-07T10:18:28.064Z,12.83
2022-11-07T10:21:37.142Z,12.82
2022-11-07T10:24:14.433Z,12.74
2022-11-07T10:26:44.419Z,12.73
2022-11-07T10:29:19.744Z,12.74
2022-11-07T10:31:54.649Z,12.74
2022-11-07T10:34:28.982Z,12.76
2022-11-07T10:36:55.528Z,12.78
2022-11-07T10:39:22.093Z,12.79
2022-11-07T10:42:18.522Z,12.83
2022-11-07T10:44:45.287Z,12.86
2022-11-07T10:47:17.610Z,12.89
2022-11-07T10:49:56.280Z,12.93
2022-11-07T10:52:23.568Z,13.08
2022-11-07T10:54:52.162Z,13.20
2022-11-07T10:57:20.952Z,13.25
2022-11-07T10:59:53.511Z,13.34
2022-11-07T11:02:29.350Z,13.38
2022-11-07T11:05:05.031Z,13.37
2022-11-07T11:07:37.896Z,13.38
2022-11-07T11:10:19.222Z,13.40
2022-11-07T11:12:47.195Z,13.44
2022-11-07T11:15:20.144Z,13.68
2022-11-07T11:17:47.942Z,13.91
2022-11-07T11:20:28.477Z,14.11
2022-11-07T11:22:55.203Z,14.15
2022-11-07T11:25:23.806Z,14.36
2022-11-07T11:28:05.039Z,14.43
2022-11-07T11:30:35.681Z,14.50
2022-11-07T11:33:11.846Z,14.51
2022-11-07T11:35:52.214Z,14.32
2022-11-07T11:38:28.338Z,14.29
2022-11-07T11:41:04.776Z,14.23
2022-11-07T11:44:07.019Z,14.26
2022-11-07T11:46:41.160Z,13.98
2022-11-07T11:49:20.643Z,13.82
2022-11-07T11:52:01.498Z,13.70
2022-11-07T11:54:28.268Z,13.65
2022-11-07T11:57:17.006Z,13.61
2022-11-07T12:00:05.238Z,13.63
2022-11-07T12:02:53.206Z,13.58
2022-11-07T12:05:41.464Z,13.53
2022-11-07T12:08:17.425Z,13.50
2022-11-07T12:11:20.404Z,13.45
2022-11-07T12:14:01.051Z,13.46
2022-11-07T12:16:56.023Z,13.45
2022-11-07T12:20:14.921Z,13.45
2022-11-07T12:22:49.942Z,13.50
2022-11-07T12:25:43.774Z,13.56
2022-11-07T12:28:28.720Z,13.56
2022-11-07T12:31:31.482Z,13.56
2022-11-07T12:34:07.883Z,13.75
2022-11-07T12:37:00.391Z,13.83
2022-11-07T12:39:27.725Z,13.93
2022-11-07T12:41:58.490Z,13.81
2022-11-07T12:44:40.087Z,13.65
2022-11-07T12:47:38.783Z,13.52
2022-11-07T12:50:29.554Z,13.43
2022-11-07T12:53:14.322Z,13.35
2022-11-07T12:55:44.972Z,13.33
2022-11-07T12:58:23.305Z,13.35
2022-11-07T13:00:51.689Z,13.41
2022-11-07T13:03:33.465Z,13.44
2022-11-07T13:06:26.335Z,13.45
2022-11-07T13:09:02.750Z,13.46
2022-11-07T13:11:37.816Z,13.49
2022-11-07T13:14:23.689Z,13.48
2022-11-07T13:17:03.457Z,13.44
2022-11-07T13:19:37.096Z,13.40
2022-11-07T13:22:19.988Z,13.36
2022-11-07T13:25:16.986Z,13.35
2022-11-07T13:27:47.985Z,13.38
2022-11-07T13:30:17.071Z,13.42
2022-11-07T13:32:51.397Z,13.43
2022-11-07T13:35:25.672Z,13.44
2022-11-07T13:38:12.344Z,13.47
2022-11-07T13:40:44.641Z,13.54
2022-11-07T13:43:16.268Z,13.55
2022-11-07T13:45:49.919Z,13.44
2022-11-07T13:48:30.979Z,13.39
2022-11-07T13:51:01.125Z,13.35
2022-11-07T13:53:34.195Z,13.32
2022-11-07T13:56:14.017Z,13.29
2022-11-07T13:58:41.777Z,13.24
2022-11-07T14:01:13.226Z,13.24
2022-11-07T14:03:39.794Z,13.22
2022-11-07T14:06:06.897Z,13.16
2022-11-07T14:08:37.518Z,13.06
2022-11-07T14:11:13.230Z,13.04
2022-11-07T14:13:41.767Z,13.01
2022-11-07T14:16:16.235Z,12.97
2022-11-07T14:18:48.344Z,12.92
2022-11-07T14:21:20.235Z,12.87
2022-11-07T14:23:49.744Z,12.85
2022-11-07T14:26:23.232Z,12.84
2022-11-07T14:28:50.644Z,12.81
2022-11-07T14:31:24.757Z,12.79
2022-11-07T14:33:54.303Z,12.75
2022-11-07T14:36:21.705Z,12.70
2022-11-07T14:38:50.698Z,12.67
2022-11-07T14:41:18.487Z,12.67
2022-11-07T14:43:45.867Z,12.67
2022-11-07T14:46:19.320Z,12.63
2022-11-07T14:48:47.714Z,12.63
2022-11-07T14:51:17.578Z,12.63
2022-11-07T14:54:04.395Z,12.57
2022-11-07T14:56:38.128Z,12.58
2022-11-07T14:59:11.510Z,12.58
2022-11-07T15:01:38.442Z,12.57
2022-11-07T15:04:27.869Z,12.58
2022-11-07T15:06:54.367Z,12.55
2022-11-07T15:09:32.586Z,12.55
2022-11-07T15:12:00.912Z,12.56
2022-11-07T15:14:35.903Z,12.57
2022-11-07T15:17:06.491Z,12.53
2022-11-07T15:19:35.523Z,12.53
2022-11-07T15:22:04.683Z,12.53
2022-11-07T15:24:42.075Z,12.52
2022-11-07T15:27:14.384Z,12.50
2022-11-07T15:29:53.873Z,12.54
2022-11-07T15:32:22.463Z,12.55
2022-11-07T15:35:08.027Z,12.56
2022-11-07T15:37:37.807Z,12.58
2022-11-07T15:40:15.161Z,12.58
2022-11-07T15:42:41.668Z,12.59
2022-11-07T15:45:08.763Z,12.64
2022-11-07T15:47:35.304Z,12.64
2022-11-07T15:50:02.100Z,12.63
2022-11-07T15:52:28.622Z,12.58
2022-11-07T15:54:55.070Z,12.57
2022-11-07T15:57:21.565Z,12.58
2022-11-07T15:59:48.070Z,12.56
2022-11-07T16:02:16.706Z,12.53
2022-11-07T16:04:43.881Z,12.54
2022-11-07T16:07:19.937Z,12.52
2022-11-07T16:09:48.517Z,12.50
2022-11-07T16:12:18.024Z,12.52
2022-11-07T16:14:45.035Z,12.51
2022-11-07T16:17:14.730Z,12.57
2022-11-07T16:19:41.345Z,12.58
2022-11-07T16:22:13.198Z,12.65
2022-11-07T16:24:39.700Z,12.65
2022-11-07T16:27:06.632Z,12.62
2022-11-07T16:29:33.172Z,12.59
2022-11-07T16:31:59.625Z,12.63
2022-11-07T16:34:26.101Z,12.62
2022-11-07T16:36:52.548Z,12.58
2022-11-07T16:39:21.911Z,12.58
2022-11-07T16:41:50.234Z,12.58
2022-11-07T16:44:21.575Z,12.56
2022-11-07T16:46:51.303Z,12.54
2022-11-07T16:49:24.766Z,12.56
2022-11-07T16:51:51.237Z,12.56
2022-11-07T16:54:17.978Z,12.56
2022-11-07T16:56:48.407Z,12.63
2022-11-07T16:59:23.764Z,12.66
2022-11-07T17:01:51.252Z,12.67
2022-11-07T17:04:17.974Z,12.66
2022-11-07T17:06:47.623Z,12.68
2022-11-07T17:09:24.642Z,12.69
2022-11-07T17:11:51.207Z,12.69
2022-11-07T17:14:20.760Z,12.67
2022-11-07T17:16:48.468Z,12.67
2022-11-07T17:19:15.535Z,12.67
2022-11-07T17:21:46.405Z,12.64
2022-11-07T17:24:13.668Z,12.63
2022-11-07T17:26:40.381Z,12.66
2022-11-07T17:29:11.938Z,12.66
2022-11-07T17:31:38.635Z,12.70
2022-11-07T17:34:05.721Z,12.74
2022-11-07T17:36:38.467Z,12.72
2022-11-07T17:39:12.053Z,12.66
2022-11-07T17:41:40.192Z,12.65
2022-11-07T17:44:07.075Z,12.65
2022-11-07T17:46:34.896Z,12.63
2022-11-07T17:49:09.654Z,12.58
2022-11-07T17:51:36.330Z,12.55
2022-11-07T17:54:04.399Z,12.59
2022-11-07T17:56:32.841Z,12.62
2022-11-07T17:59:03.188Z,12.61
2022-11-07T18:01:35.734Z,12.58
2022-11-07T18:04:03.610Z,12.61
2022-11-07T18:06:30.169Z,12.64
2022-11-07T18:08:58.365Z,12.61
2022-11-07T18:11:28.258Z,12.61
2022-11-07T18:13:56.162Z,12.62
2022-11-07T18:16:28.604Z,12.59
2022-11-07T18:18:56.670Z,12.59
2022-11-07T18:21:23.286Z,12.55
2022-11-07T18:23:49.748Z,12.55
2022-11-07T18:26:25.081Z,12.55
2022-11-07T18:28:53.533Z,12.54
2022-11-07T18:31:22.178Z,12.52
2022-11-07T18:33:48.864Z,12.53
2022-11-07T18:36:18.160Z,12.55
2022-11-07T18:38:44.765Z,12.52
2022-11-07T18:41:14.198Z,12.48
2022-11-07T18:43:40.865Z,12.43
2022-11-07T18:46:09.504Z,12.44
2022-11-07T18:48:37.871Z,12.45
2022-11-07T18:51:11.776Z,12.42
2022-11-07T18:53:38.832Z,12.46
2022-11-07T18:56:07.445Z,12.48
2022-11-07T18:58:36.438Z,12.50
2022-11-07T19:01:08.914Z,12.53
2022-11-07T19:03:36.399Z,12.55
2022-11-07T19:06:07.879Z,12.57
2022-11-07T19:08:37.612Z,12.56
2022-11-07T19:11:07.024Z,12.56
2022-11-07T19:13:38.265Z,12.58
2022-11-07T19:16:06.359Z,12.58
2022-11-07T19:18:33.166Z,12.59
2022-11-07T19:20:59.962Z,12.63
2022-11-07T19:23:27.201Z,12.66
2022-11-07T19:25:54.369Z,12.67
2022-11-07T19:28:20.922Z,12.65
2022-11-07T19:30:47.459Z,12.62
2022-11-07T19:33:16.027Z,12.58
2022-11-07T19:35:43.085Z,12.64
2022-11-07T19:38:12.042Z,12.68
2022-11-07T19:40:38.956Z,12.69
2022-11-07T19:43:05.627Z,12.70
2022-11-07T19:45:32.198Z,12.68
2022-11-07T19:47:58.801Z,12.70
2022-11-07T19:50:25.372Z,12.70
2022-11-07T19:52:51.927Z,12.73
2022-11-07T19:55:18.542Z,12.73
2022-11-07T19:57:45.050Z,12.75
2022-11-07T20:00:12.812Z,12.73
2022-11-07T20:02:44.394Z,12.74
2022-11-07T20:05:11.692Z,12.72
2022-11-07T20:07:39.146Z,12.70
2022-11-07T20:10:08.587Z,12.69
2022-11-07T20:12:35.121Z,12.68
2022-11-07T20:15:01.653Z,12.67
2022-11-07T20:17:28.199Z,12.65
2022-11-07T20:19:54.711Z,12.57
2022-11-07T20:22:21.182Z,12.54
2022-11-07T20:24:47.678Z,12.56
2022-11-07T20:27:14.620Z,12.55
2022-11-07T20:29:41.155Z,12.58
2022-11-07T20:32:07.775Z,12.59
2022-11-07T20:34:34.273Z,12.56
2022-11-07T20:37:00.845Z,12.62
2022-11-07T20:39:27.368Z,12.62
2022-11-07T20:41:53.979Z,12.59
2022-11-07T20:44:22.795Z,12.58
2022-11-07T20:46:50.086Z,12.58
2022-11-07T20:49:17.899Z,12.58
2022-11-07T20:51:45.054Z,12.60
2022-11-07T20:54:13.784Z,12.63
2022-11-07T20:56:41.806Z,12.63
2022-11-07T20:59:09.625Z,12.59
2022-11-07T21:01:37.419Z,12.58
2022-11-07T21:04:09.721Z,12.58
2022-11-07T21:06:36.139Z,12.56
2022-11-07T21:09:03.005Z,12.64
2022-11-07T21:11:30.621Z,12.68
2022-11-07T21:13:57.544Z,12.65
2022-11-07T21:16:25.398Z,12.69
2022-11-07T21:18:53.381Z,12.69
2022-11-07T21:21:23.267Z,12.70
2022-11-07T21:23:50.522Z,12.73
2022-11-07T21:26:33.382Z,12.73
2022-11-07T21:29:01.205Z,12.74
2022-11-07T21:31:30.579Z,12.72
2022-11-07T21:33:57.820Z,12.70
2022-11-07T21:36:29.482Z,12.69
2022-11-07T21:38:57.592Z,12.68
2022-11-07T21:41:25.030Z,12.70
2022-11-07T21:43:51.700Z,12.70
2022-11-07T21:46:30.623Z,12.68
2022-11-07T21:48:58.390Z,12.68
2022-11-07T21:51:30.470Z,12.65
2022-11-07T21:53:58.348Z,12.68
2022-11-07T21:56:27.249Z,12.66
2022-11-07T21:59:05.138Z,12.64
2022-11-07T22:01:35.407Z,12.64
2022-11-07T22:04:08.900Z,12.64
2022-11-07T22:06:38.705Z,12.64
2022-11-07T22:09:07.572Z,12.61
2022-11-07T22:11:34.275Z,12.64
2022-11-07T22:14:00.743Z,12.65
2022-11-07T22:16:27.495Z,12.64
2022-11-07T22:18:54.195Z,12.58
2022-11-07T22:21:22.856Z,12.55
2022-11-07T22:23:49.861Z,12.56
2022-11-07T22:26:22.210Z,12.55
2022-11-07T22:28:49.395Z,12.54
2022-11-07T22:31:18.700Z,12.56
2022-11-07T22:33:45.219Z,12.58
2022-11-07T22:36:12.380Z,12.59
2022-11-07T22:38:39.680Z,12.63
2022-11-07T22:41:08.613Z,12.59
2022-11-07T22:43:35.396Z,12.57
2022-11-07T22:46:03.261Z,12.60
2022-11-07T22:48:29.857Z,12.59
2022-11-07T22:51:13.032Z,12.59
2022-11-07T22:53:39.835Z,12.57
2022-11-07T22:56:19.514Z,12.57
2022-11-07T22:58:47.214Z,12.59
2022-11-07T23:01:23.233Z,12.57
2022-11-07T23:03:50.896Z,12.56
2022-11-07T23:06:18.366Z,12.58
2022-11-07T23:08:45.136Z,12.58
2022-11-07T23:14:06.789Z,12.56
2022-11-07T23:16:38.849Z,12.57
2022-11-07T23:19:07.013Z,12.53
2022-11-07T23:21:33.670Z,12.52
2022-11-07T23:24:00.593Z,12.51
2022-11-07T23:26:33.839Z,12.53
2022-11-07T23:29:10.805Z,12.54
2022-11-07T23:31:43.180Z,12.51
2022-11-07T23:34:09.799Z,12.54
2022-11-07T23:36:39.964Z,12.56
2022-11-07T23:39:08.689Z,12.54
2022-11-07T23:41:35.521Z,12.53
2022-11-07T23:44:02.737Z,12.49
2022-11-07T23:46:48.277Z,12.49
2022-11-07T23:49:33.093Z,12.52
2022-11-07T23:51:59.608Z,12.49
2022-11-07T23:54:44.717Z,12.51
2022-11-07T23:57:11.274Z,12.50
2022-11-07T23:59:57.717Z,12.49
